sensor_id;sensor_type;location;lat;lon;timestamp;P1;durP1;ratioP1;P2;durP2;ratioP2
54177;SDS011;40085;53.004;6.770;2023-11-21T00:00:56;3.35;;;2.88;;
54177;SDS011;40085;53.004;6.770;2023-11-21T00:03:23;5.32;;;3.10;;
54177;SDS011;40085;53.004;6.770;2023-11-21T00:05:49;3.92;;;3.08;;
54177;SDS011;40085;53.004;6.770;2023-11-21T00:08:15;3.30;;;2.85;;
54177;SDS011;40085;53.004;6.770;2023-11-21T00:10:42;4.07;;;3.15;;
54177;SDS011;40085;53.004;6.770;2023-11-21T00:13:08;3.20;;;2.28;;
54177;SDS011;40085;53.004;6.770;2023-11-21T00:15:34;3.05;;;2.70;;
54177;SDS011;40085;53.004;6.770;2023-11-21T00:18:00;4.15;;;2.65;;
54177;SDS011;40085;53.004;6.770;2023-11-21T00:20:26;4.38;;;2.92;;
54177;SDS011;40085;53.004;6.770;2023-11-21T00:22:52;5.35;;;2.83;;
54177;SDS011;40085;53.004;6.770;2023-11-21T00:25:18;4.60;;;3.10;;
54177;SDS011;40085;53.004;6.770;2023-11-21T00:27:45;4.47;;;3.50;;
54177;SDS011;40085;53.004;6.770;2023-11-21T00:30:11;4.43;;;3.63;;
54177;SDS011;40085;53.004;6.770;2023-11-21T00:32:37;5.00;;;3.15;;
54177;SDS011;40085;53.004;6.770;2023-11-21T00:35:04;4.55;;;2.78;;
54177;SDS011;40085;53.004;6.770;2023-11-21T00:37:30;4.65;;;3.30;;
54177;SDS011;40085;53.004;6.770;2023-11-21T00:39:57;5.05;;;3.33;;
54177;SDS011;40085;53.004;6.770;2023-11-21T00:42:23;3.75;;;3.30;;
54177;SDS011;40085;53.004;6.770;2023-11-21T00:44:49;4.72;;;3.33;;
54177;SDS011;40085;53.004;6.770;2023-11-21T00:47:15;4.57;;;3.08;;
54177;SDS011;40085;53.004;6.770;2023-11-21T00:49:41;3.42;;;3.13;;
54177;SDS011;40085;53.004;6.770;2023-11-21T00:52:08;4.82;;;2.92;;
54177;SDS011;40085;53.004;6.770;2023-11-21T00:54:34;4.47;;;3.58;;
54177;SDS011;40085;53.004;6.770;2023-11-21T00:57:01;3.70;;;3.08;;
54177;SDS011;40085;53.004;6.770;2023-11-21T00:59:27;4.63;;;3.33;;
54177;SDS011;40085;53.004;6.770;2023-11-21T01:01:53;4.50;;;3.00;;
54177;SDS011;40085;53.004;6.770;2023-11-21T01:04:19;5.57;;;3.38;;
54177;SDS011;40085;53.004;6.770;2023-11-21T01:06:45;4.90;;;3.58;;
54177;SDS011;40085;53.004;6.770;2023-11-21T01:09:11;5.28;;;3.88;;
54177;SDS011;40085;53.004;6.770;2023-11-21T01:11:37;4.43;;;3.50;;
54177;SDS011;40085;53.004;6.770;2023-11-21T01:14:04;5.80;;;4.38;;
54177;SDS011;40085;53.004;6.770;2023-11-21T01:16:31;4.22;;;3.80;;
54177;SDS011;40085;53.004;6.770;2023-11-21T01:18:57;4.88;;;3.42;;
54177;SDS011;40085;53.004;6.770;2023-11-21T01:21:24;4.93;;;3.72;;
54177;SDS011;40085;53.004;6.770;2023-11-21T01:23:50;6.13;;;3.90;;
54177;SDS011;40085;53.004;6.770;2023-11-21T01:26:16;5.05;;;3.78;;
54177;SDS011;40085;53.004;6.770;2023-11-21T01:28:42;4.80;;;3.47;;
54177;SDS011;40085;53.004;6.770;2023-11-21T01:31:08;5.13;;;3.90;;
54177;SDS011;40085;53.004;6.770;2023-11-21T01:33:34;5.05;;;4.03;;
54177;SDS011;40085;53.004;6.770;2023-11-21T01:36:00;4.70;;;3.50;;
54177;SDS011;40085;53.004;6.770;2023-11-21T01:38:26;5.32;;;3.97;;
54177;SDS011;40085;53.004;6.770;2023-11-21T01:40:52;5.25;;;4.32;;
54177;SDS011;40085;53.004;6.770;2023-11-21T01:43:18;5.20;;;3.88;;
54177;SDS011;40085;53.004;6.770;2023-11-21T01:45:44;4.40;;;3.65;;
54177;SDS011;40085;53.004;6.770;2023-11-21T01:48:10;5.32;;;3.53;;
54177;SDS011;40085;53.004;6.770;2023-11-21T01:50:37;3.63;;;3.33;;
54177;SDS011;40085;53.004;6.770;2023-11-21T01:53:03;4.00;;;3.58;;
54177;SDS011;40085;53.004;6.770;2023-11-21T01:55:29;5.95;;;4.50;;
54177;SDS011;40085;53.004;6.770;2023-11-21T01:57:56;3.70;;;3.30;;
54177;SDS011;40085;53.004;6.770;2023-11-21T02:00:22;4.55;;;3.83;;
54177;SDS011;40085;53.004;6.770;2023-11-21T02:02:48;5.53;;;4.30;;
54177;SDS011;40085;53.004;6.770;2023-11-21T02:05:15;3.85;;;3.30;;
54177;SDS011;40085;53.004;6.770;2023-11-21T02:07:43;5.47;;;3.75;;
54177;SDS011;40085;53.004;6.770;2023-11-21T02:10:10;7.68;;;4.47;;
54177;SDS011;40085;53.004;6.770;2023-11-21T02:12:39;3.97;;;3.40;;
54177;SDS011;40085;53.004;6.770;2023-11-21T02:15:07;4.82;;;3.90;;
54177;SDS011;40085;53.004;6.770;2023-11-21T02:17:40;6.85;;;3.95;;
54177;SDS011;40085;53.004;6.770;2023-11-21T02:20:06;4.28;;;3.55;;
54177;SDS011;40085;53.004;6.770;2023-11-21T02:22:33;4.65;;;3.42;;
54177;SDS011;40085;53.004;6.770;2023-11-21T02:25:00;4.60;;;3.85;;
54177;SDS011;40085;53.004;6.770;2023-11-21T02:27:27;4.70;;;3.72;;
54177;SDS011;40085;53.004;6.770;2023-11-21T02:29:54;4.78;;;3.85;;
54177;SDS011;40085;53.004;6.770;2023-11-21T02:32:20;5.45;;;3.97;;
54177;SDS011;40085;53.004;6.770;2023-11-21T02:34:48;5.32;;;4.28;;
54177;SDS011;40085;53.004;6.770;2023-11-21T02:37:15;5.45;;;4.30;;
54177;SDS011;40085;53.004;6.770;2023-11-21T02:39:41;5.60;;;3.90;;
54177;SDS011;40085;53.004;6.770;2023-11-21T02:42:07;6.30;;;4.18;;
54177;SDS011;40085;53.004;6.770;2023-11-21T02:44:33;5.38;;;4.35;;
54177;SDS011;40085;53.004;6.770;2023-11-21T02:46:59;5.40;;;3.70;;
54177;SDS011;40085;53.004;6.770;2023-11-21T02:49:26;6.00;;;3.58;;
54177;SDS011;40085;53.004;6.770;2023-11-21T02:51:55;6.15;;;4.38;;
54177;SDS011;40085;53.004;6.770;2023-11-21T02:54:21;5.03;;;4.05;;
54177;SDS011;40085;53.004;6.770;2023-11-21T02:56:48;5.32;;;4.18;;
54177;SDS011;40085;53.004;6.770;2023-11-21T02:59:14;5.68;;;4.30;;
54177;SDS011;40085;53.004;6.770;2023-11-21T03:01:40;6.78;;;4.25;;
54177;SDS011;40085;53.004;6.770;2023-11-21T03:04:06;5.05;;;4.07;;
54177;SDS011;40085;53.004;6.770;2023-11-21T03:06:32;5.32;;;3.60;;
54177;SDS011;40085;53.004;6.770;2023-11-21T03:08:59;6.22;;;4.57;;
54177;SDS011;40085;53.004;6.770;2023-11-21T03:11:25;6.13;;;4.25;;
54177;SDS011;40085;53.004;6.770;2023-11-21T03:13:51;4.28;;;3.63;;
54177;SDS011;40085;53.004;6.770;2023-11-21T03:16:16;6.82;;;3.75;;
54177;SDS011;40085;53.004;6.770;2023-11-21T03:18:44;4.22;;;3.83;;
54177;SDS011;40085;53.004;6.770;2023-11-21T03:21:10;5.63;;;4.05;;
54177;SDS011;40085;53.004;6.770;2023-11-21T03:23:36;5.47;;;4.15;;
54177;SDS011;40085;53.004;6.770;2023-11-21T03:26:03;8.15;;;4.70;;
54177;SDS011;40085;53.004;6.770;2023-11-21T03:28:29;12.50;;;4.90;;
54177;SDS011;40085;53.004;6.770;2023-11-21T03:30:55;6.20;;;4.50;;
54177;SDS011;40085;53.004;6.770;2023-11-21T03:33:21;5.00;;;3.97;;
54177;SDS011;40085;53.004;6.770;2023-11-21T03:35:47;5.32;;;3.88;;
54177;SDS011;40085;53.004;6.770;2023-11-21T03:38:14;4.93;;;4.10;;
54177;SDS011;40085;53.004;6.770;2023-11-21T03:40:40;6.55;;;4.43;;
54177;SDS011;40085;53.004;6.770;2023-11-21T03:43:06;6.57;;;3.92;;
54177;SDS011;40085;53.004;6.770;2023-11-21T03:45:33;8.27;;;4.75;;
54177;SDS011;40085;53.004;6.770;2023-11-21T03:47:59;6.50;;;4.63;;
54177;SDS011;40085;53.004;6.770;2023-11-21T03:50:27;6.40;;;3.63;;
54177;SDS011;40085;53.004;6.770;2023-11-21T03:52:53;4.93;;;3.00;;
54177;SDS011;40085;53.004;6.770;2023-11-21T03:55:19;9.63;;;5.00;;
54177;SDS011;40085;53.004;6.770;2023-11-21T03:57:45;6.40;;;4.72;;
54177;SDS011;40085;53.004;6.770;2023-11-21T04:00:11;6.07;;;3.80;;
54177;SDS011;40085;53.004;6.770;2023-11-21T04:02:37;5.50;;;4.07;;
54177;SDS011;40085;53.004;6.770;2023-11-21T04:05:04;5.28;;;4.30;;
54177;SDS011;40085;53.004;6.770;2023-11-21T04:07:32;8.85;;;5.05;;
54177;SDS011;40085;53.004;6.770;2023-11-21T04:09:58;7.32;;;4.68;;
54177;SDS011;40085;53.004;6.770;2023-11-21T04:12:24;7.03;;;4.50;;
54177;SDS011;40085;53.004;6.770;2023-11-21T04:14:50;6.07;;;4.80;;
54177;SDS011;40085;53.004;6.770;2023-11-21T04:17:19;7.90;;;4.25;;
54177;SDS011;40085;53.004;6.770;2023-11-21T04:19:46;7.00;;;4.57;;
54177;SDS011;40085;53.004;6.770;2023-11-21T04:22:12;4.03;;;3.65;;
54177;SDS011;40085;53.004;6.770;2023-11-21T04:24:38;5.75;;;4.25;;
54177;SDS011;40085;53.004;6.770;2023-11-21T04:27:04;4.03;;;3.60;;
54177;SDS011;40085;53.004;6.770;2023-11-21T04:29:30;5.10;;;4.18;;
54177;SDS011;40085;53.004;6.770;2023-11-21T04:31:56;4.97;;;4.03;;
54177;SDS011;40085;53.004;6.770;2023-11-21T04:34:22;5.68;;;3.55;;
54177;SDS011;40085;53.004;6.770;2023-11-21T04:36:49;4.47;;;3.78;;
54177;SDS011;40085;53.004;6.770;2023-11-21T04:39:15;7.75;;;4.57;;
54177;SDS011;40085;53.004;6.770;2023-11-21T04:41:41;5.53;;;3.95;;
54177;SDS011;40085;53.004;6.770;2023-11-21T04:44:08;9.05;;;5.57;;
54177;SDS011;40085;53.004;6.770;2023-11-21T04:46:34;5.68;;;4.40;;
54177;SDS011;40085;53.004;6.770;2023-11-21T04:49:00;4.95;;;4.07;;
54177;SDS011;40085;53.004;6.770;2023-11-21T04:51:26;5.53;;;4.65;;
54177;SDS011;40085;53.004;6.770;2023-11-21T04:53:52;6.20;;;4.20;;
54177;SDS011;40085;53.004;6.770;2023-11-21T04:56:18;7.47;;;4.57;;
54177;SDS011;40085;53.004;6.770;2023-11-21T04:58:45;6.10;;;4.75;;
54177;SDS011;40085;53.004;6.770;2023-11-21T05:01:11;4.88;;;4.15;;
54177;SDS011;40085;53.004;6.770;2023-11-21T05:03:37;4.00;;;3.60;;
54177;SDS011;40085;53.004;6.770;2023-11-21T05:06:04;3.85;;;3.33;;
54177;SDS011;40085;53.004;6.770;2023-11-21T05:08:30;4.10;;;3.65;;
54177;SDS011;40085;53.004;6.770;2023-11-21T05:10:56;4.93;;;3.40;;
54177;SDS011;40085;53.004;6.770;2023-11-21T05:13:22;3.95;;;3.22;;
54177;SDS011;40085;53.004;6.770;2023-11-21T05:15:52;3.63;;;3.33;;
54177;SDS011;40085;53.004;6.770;2023-11-21T05:18:18;4.40;;;3.55;;
54177;SDS011;40085;53.004;6.770;2023-11-21T05:20:44;3.38;;;3.08;;
54177;SDS011;40085;53.004;6.770;2023-11-21T05:23:10;4.30;;;3.67;;
54177;SDS011;40085;53.004;6.770;2023-11-21T05:25:36;4.05;;;2.72;;
54177;SDS011;40085;53.004;6.770;2023-11-21T05:28:02;4.38;;;3.35;;
54177;SDS011;40085;53.004;6.770;2023-11-21T05:30:29;4.00;;;3.55;;
54177;SDS011;40085;53.004;6.770;2023-11-21T05:32:55;3.70;;;3.28;;
54177;SDS011;40085;53.004;6.770;2023-11-21T05:35:21;3.58;;;3.10;;
54177;SDS011;40085;53.004;6.770;2023-11-21T05:37:47;3.97;;;3.63;;
54177;SDS011;40085;53.004;6.770;2023-11-21T05:40:13;4.32;;;3.20;;
54177;SDS011;40085;53.004;6.770;2023-11-21T05:42:39;4.32;;;3.63;;
54177;SDS011;40085;53.004;6.770;2023-11-21T05:45:06;3.47;;;3.17;;
54177;SDS011;40085;53.004;6.770;2023-11-21T05:47:42;4.35;;;3.53;;
54177;SDS011;40085;53.004;6.770;2023-11-21T05:50:09;2.97;;;2.58;;
54177;SDS011;40085;53.004;6.770;2023-11-21T05:52:38;4.20;;;3.25;;
54177;SDS011;40085;53.004;6.770;2023-11-21T05:55:07;3.58;;;2.92;;
54177;SDS011;40085;53.004;6.770;2023-11-21T05:57:34;4.18;;;3.75;;
54177;SDS011;40085;53.004;6.770;2023-11-21T06:00:06;5.70;;;4.15;;
54177;SDS011;40085;53.004;6.770;2023-11-21T06:02:51;4.10;;;3.58;;
54177;SDS011;40085;53.004;6.770;2023-11-21T06:05:21;4.13;;;3.70;;
54177;SDS011;40085;53.004;6.770;2023-11-21T06:07:51;4.72;;;3.85;;
54177;SDS011;40085;53.004;6.770;2023-11-21T06:10:19;7.53;;;4.97;;
54177;SDS011;40085;53.004;6.770;2023-11-21T06:12:45;5.47;;;4.85;;
54177;SDS011;40085;53.004;6.770;2023-11-21T06:15:11;4.57;;;3.80;;
54177;SDS011;40085;53.004;6.770;2023-11-21T06:17:41;4.25;;;3.72;;
54177;SDS011;40085;53.004;6.770;2023-11-21T06:20:10;4.22;;;3.50;;
54177;SDS011;40085;53.004;6.770;2023-11-21T06:22:39;3.67;;;3.17;;
54177;SDS011;40085;53.004;6.770;2023-11-21T06:25:05;4.15;;;2.97;;
54177;SDS011;40085;53.004;6.770;2023-11-21T06:27:33;2.30;;;2.10;;
54177;SDS011;40085;53.004;6.770;2023-11-21T06:29:59;3.10;;;2.45;;
54177;SDS011;40085;53.004;6.770;2023-11-21T06:32:25;2.95;;;2.65;;
54177;SDS011;40085;53.004;6.770;2023-11-21T06:34:51;4.57;;;2.88;;
54177;SDS011;40085;53.004;6.770;2023-11-21T06:37:20;2.92;;;2.58;;
54177;SDS011;40085;53.004;6.770;2023-11-21T06:39:48;2.90;;;2.60;;
54177;SDS011;40085;53.004;6.770;2023-11-21T06:42:17;3.42;;;2.63;;
54177;SDS011;40085;53.004;6.770;2023-11-21T06:44:44;2.97;;;2.70;;
54177;SDS011;40085;53.004;6.770;2023-11-21T06:47:10;3.03;;;2.70;;
54177;SDS011;40085;53.004;6.770;2023-11-21T06:49:36;3.10;;;2.72;;
54177;SDS011;40085;53.004;6.770;2023-11-21T06:52:03;2.60;;;2.40;;
54177;SDS011;40085;53.004;6.770;2023-11-21T06:54:30;3.42;;;2.60;;
54177;SDS011;40085;53.004;6.770;2023-11-21T06:56:57;4.00;;;3.60;;
54177;SDS011;40085;53.004;6.770;2023-11-21T06:59:23;3.40;;;3.10;;
54177;SDS011;40085;53.004;6.770;2023-11-21T07:01:50;3.05;;;2.47;;
54177;SDS011;40085;53.004;6.770;2023-11-21T07:04:16;3.33;;;3.03;;
54177;SDS011;40085;53.004;6.770;2023-11-21T07:06:43;3.47;;;2.97;;
54177;SDS011;40085;53.004;6.770;2023-11-21T07:09:09;3.28;;;2.97;;
54177;SDS011;40085;53.004;6.770;2023-11-21T07:11:36;5.57;;;2.85;;
54177;SDS011;40085;53.004;6.770;2023-11-21T07:14:03;3.50;;;2.22;;
54177;SDS011;40085;53.004;6.770;2023-11-21T07:16:34;2.92;;;2.63;;
54177;SDS011;40085;53.004;6.770;2023-11-21T07:19:02;3.55;;;2.53;;
54177;SDS011;40085;53.004;6.770;2023-11-21T07:21:34;2.70;;;2.38;;
54177;SDS011;40085;53.004;6.770;2023-11-21T07:24:01;3.47;;;2.67;;
54177;SDS011;40085;53.004;6.770;2023-11-21T07:26:31;3.85;;;3.30;;
54177;SDS011;40085;53.004;6.770;2023-11-21T07:28:57;4.07;;;3.67;;
54177;SDS011;40085;53.004;6.770;2023-11-21T07:31:23;6.10;;;4.35;;
54177;SDS011;40085;53.004;6.770;2023-11-21T07:33:49;4.47;;;3.83;;
54177;SDS011;40085;53.004;6.770;2023-11-21T07:36:16;5.63;;;4.72;;
54177;SDS011;40085;53.004;6.770;2023-11-21T07:38:43;5.28;;;4.45;;
54177;SDS011;40085;53.004;6.770;2023-11-21T07:41:09;4.90;;;4.32;;
54177;SDS011;40085;53.004;6.770;2023-11-21T07:43:36;4.40;;;3.97;;
54177;SDS011;40085;53.004;6.770;2023-11-21T07:46:02;4.15;;;3.75;;
54177;SDS011;40085;53.004;6.770;2023-11-21T07:48:31;4.28;;;3.88;;
54177;SDS011;40085;53.004;6.770;2023-11-21T07:50:58;4.13;;;3.72;;
54177;SDS011;40085;53.004;6.770;2023-11-21T07:53:24;4.47;;;4.07;;
54177;SDS011;40085;53.004;6.770;2023-11-21T07:55:55;4.13;;;3.72;;
54177;SDS011;40085;53.004;6.770;2023-11-21T07:58:21;3.80;;;3.50;;
54177;SDS011;40085;53.004;6.770;2023-11-21T08:00:46;4.32;;;3.92;;
54177;SDS011;40085;53.004;6.770;2023-11-21T08:03:13;4.07;;;3.67;;
54177;SDS011;40085;53.004;6.770;2023-11-21T08:05:39;4.53;;;4.13;;
54177;SDS011;40085;53.004;6.770;2023-11-21T08:08:04;4.65;;;4.07;;
54177;SDS011;40085;53.004;6.770;2023-11-21T08:10:30;4.07;;;3.67;;
54177;SDS011;40085;53.004;6.770;2023-11-21T08:12:56;4.05;;;3.72;;
54177;SDS011;40085;53.004;6.770;2023-11-21T08:15:22;5.45;;;4.43;;
54177;SDS011;40085;53.004;6.770;2023-11-21T08:17:47;3.92;;;3.58;;
54177;SDS011;40085;53.004;6.770;2023-11-21T08:20:13;3.88;;;3.58;;
54177;SDS011;40085;53.004;6.770;2023-11-21T08:22:43;3.67;;;3.35;;
54177;SDS011;40085;53.004;6.770;2023-11-21T08:25:09;5.85;;;4.65;;
54177;SDS011;40085;53.004;6.770;2023-11-21T08:27:35;4.63;;;4.20;;
54177;SDS011;40085;53.004;6.770;2023-11-21T08:30:02;4.35;;;3.95;;
54177;SDS011;40085;53.004;6.770;2023-11-21T08:32:28;4.47;;;4.07;;
54177;SDS011;40085;53.004;6.770;2023-11-21T08:34:58;4.00;;;3.70;;
54177;SDS011;40085;53.004;6.770;2023-11-21T08:37:24;4.35;;;3.95;;
54177;SDS011;40085;53.004;6.770;2023-11-21T08:39:52;3.92;;;3.58;;
54177;SDS011;40085;53.004;6.770;2023-11-21T08:42:18;3.90;;;3.58;;
54177;SDS011;40085;53.004;6.770;2023-11-21T08:44:44;4.30;;;3.92;;
54177;SDS011;40085;53.004;6.770;2023-11-21T08:47:10;4.78;;;4.38;;
54177;SDS011;40085;53.004;6.770;2023-11-21T08:49:35;4.45;;;4.05;;
54177;SDS011;40085;53.004;6.770;2023-11-21T08:52:01;4.40;;;4.03;;
54177;SDS011;40085;53.004;6.770;2023-11-21T08:54:27;4.25;;;3.95;;
54177;SDS011;40085;53.004;6.770;2023-11-21T08:56:53;4.00;;;3.70;;
54177;SDS011;40085;53.004;6.770;2023-11-21T08:59:19;4.20;;;3.90;;
54177;SDS011;40085;53.004;6.770;2023-11-21T09:01:46;3.80;;;3.40;;
54177;SDS011;40085;53.004;6.770;2023-11-21T09:04:12;4.70;;;4.30;;
54177;SDS011;40085;53.004;6.770;2023-11-21T09:06:38;5.05;;;4.65;;
54177;SDS011;40085;53.004;6.770;2023-11-21T09:09:06;3.92;;;3.63;;
54177;SDS011;40085;53.004;6.770;2023-11-21T09:11:33;4.63;;;4.22;;
54177;SDS011;40085;53.004;6.770;2023-11-21T09:13:59;4.53;;;4.13;;
54177;SDS011;40085;53.004;6.770;2023-11-21T09:16:25;3.80;;;3.50;;
54177;SDS011;40085;53.004;6.770;2023-11-21T09:18:51;3.88;;;3.58;;
54177;SDS011;40085;53.004;6.770;2023-11-21T09:21:17;3.35;;;3.13;;
54177;SDS011;40085;53.004;6.770;2023-11-21T09:23:44;2.90;;;2.70;;
54177;SDS011;40085;53.004;6.770;2023-11-21T09:26:09;3.25;;;3.05;;
54177;SDS011;40085;53.004;6.770;2023-11-21T09:28:35;3.40;;;3.10;;
54177;SDS011;40085;53.004;6.770;2023-11-21T09:31:02;3.13;;;2.90;;
54177;SDS011;40085;53.004;6.770;2023-11-21T09:33:34;3.17;;;2.88;;
54177;SDS011;40085;53.004;6.770;2023-11-21T09:35:59;3.25;;;2.95;;
54177;SDS011;40085;53.004;6.770;2023-11-21T09:38:26;3.35;;;3.05;;
54177;SDS011;40085;53.004;6.770;2023-11-21T09:40:53;4.43;;;3.20;;
54177;SDS011;40085;53.004;6.770;2023-11-21T09:43:20;3.60;;;3.30;;
54177;SDS011;40085;53.004;6.770;2023-11-21T09:45:51;3.42;;;3.13;;
54177;SDS011;40085;53.004;6.770;2023-11-21T09:48:24;2.60;;;2.40;;
54177;SDS011;40085;53.004;6.770;2023-11-21T09:50:51;3.10;;;2.80;;
54177;SDS011;40085;53.004;6.770;2023-11-21T09:53:19;3.33;;;3.03;;
54177;SDS011;40085;53.004;6.770;2023-11-21T09:55:52;2.85;;;2.65;;
54177;SDS011;40085;53.004;6.770;2023-11-21T09:58:19;2.90;;;2.70;;
54177;SDS011;40085;53.004;6.770;2023-11-21T10:00:47;3.28;;;2.67;;
54177;SDS011;40085;53.004;6.770;2023-11-21T10:03:14;2.60;;;2.40;;
54177;SDS011;40085;53.004;6.770;2023-11-21T10:05:41;3.00;;;2.70;;
54177;SDS011;40085;53.004;6.770;2023-11-21T10:08:10;2.55;;;2.35;;
54177;SDS011;40085;53.004;6.770;2023-11-21T10:10:45;3.08;;;2.35;;
54177;SDS011;40085;53.004;6.770;2023-11-21T10:13:14;2.83;;;2.63;;
54177;SDS011;40085;53.004;6.770;2023-11-21T10:15:43;2.55;;;2.35;;
54177;SDS011;40085;53.004;6.770;2023-11-21T10:18:13;1.98;;;1.88;;
54177;SDS011;40085;53.004;6.770;2023-11-21T10:20:40;2.78;;;2.38;;
54177;SDS011;40085;53.004;6.770;2023-11-21T10:23:06;2.38;;;2.20;;
54177;SDS011;40085;53.004;6.770;2023-11-21T10:25:36;2.00;;;1.80;;
54177;SDS011;40085;53.004;6.770;2023-11-21T10:28:02;2.55;;;2.35;;
54177;SDS011;40085;53.004;6.770;2023-11-21T10:30:32;2.03;;;1.90;;
54177;SDS011;40085;53.004;6.770;2023-11-21T10:33:02;2.22;;;2.03;;
54177;SDS011;40085;53.004;6.770;2023-11-21T10:35:47;1.50;;;1.40;;
54177;SDS011;40085;53.004;6.770;2023-11-21T10:38:19;3.00;;;1.80;;
54177;SDS011;40085;53.004;6.770;2023-11-21T10:40:51;2.35;;;2.15;;
54177;SDS011;40085;53.004;6.770;2023-11-21T10:43:17;1.73;;;1.60;;
54177;SDS011;40085;53.004;6.770;2023-11-21T10:45:43;2.08;;;1.90;;
54177;SDS011;40085;53.004;6.770;2023-11-21T10:48:13;1.67;;;1.58;;
54177;SDS011;40085;53.004;6.770;2023-11-21T10:50:43;1.63;;;1.50;;
54177;SDS011;40085;53.004;6.770;2023-11-21T10:53:10;1.60;;;1.50;;
54177;SDS011;40085;53.004;6.770;2023-11-21T10:55:39;1.70;;;1.60;;
54177;SDS011;40085;53.004;6.770;2023-11-21T10:58:05;1.83;;;1.70;;
54177;SDS011;40085;53.004;6.770;2023-11-21T11:00:32;1.60;;;1.50;;
54177;SDS011;40085;53.004;6.770;2023-11-21T11:02:58;1.52;;;1.42;;
54177;SDS011;40085;53.004;6.770;2023-11-21T11:05:26;1.80;;;1.70;;
54177;SDS011;40085;53.004;6.770;2023-11-21T11:08:06;1.80;;;1.70;;
54177;SDS011;40085;53.004;6.770;2023-11-21T11:10:33;1.83;;;1.63;;
54177;SDS011;40085;53.004;6.770;2023-11-21T11:13:00;1.92;;;1.83;;
54177;SDS011;40085;53.004;6.770;2023-11-21T11:15:26;1.75;;;1.65;;
54177;SDS011;40085;53.004;6.770;2023-11-21T11:17:53;1.80;;;1.70;;
54177;SDS011;40085;53.004;6.770;2023-11-21T11:20:23;1.75;;;1.65;;
54177;SDS011;40085;53.004;6.770;2023-11-21T11:28:34;1.65;;;1.55;;
54177;SDS011;40085;53.004;6.770;2023-11-21T11:33:50;2.08;;;1.55;;
54177;SDS011;40085;53.004;6.770;2023-11-21T11:36:36;1.30;;;1.20;;
54177;SDS011;40085;53.004;6.770;2023-11-21T11:39:27;1.70;;;1.60;;
54177;SDS011;40085;53.004;6.770;2023-11-21T11:42:04;1.50;;;1.40;;
54177;SDS011;40085;53.004;6.770;2023-11-21T11:47:19;1.70;;;1.60;;
54177;SDS011;40085;53.004;6.770;2023-11-21T11:52:48;1.85;;;1.75;;
54177;SDS011;40085;53.004;6.770;2023-11-21T11:55:18;1.55;;;1.45;;
54177;SDS011;40085;53.004;6.770;2023-11-21T11:57:49;1.73;;;1.50;;
54177;SDS011;40085;53.004;6.770;2023-11-21T12:00:21;1.67;;;1.58;;
54177;SDS011;40085;53.004;6.770;2023-11-21T12:02:54;1.45;;;1.35;;
54177;SDS011;40085;53.004;6.770;2023-11-21T12:05:22;1.42;;;1.33;;
54177;SDS011;40085;53.004;6.770;2023-11-21T12:10:17;1.65;;;1.55;;
54177;SDS011;40085;53.004;6.770;2023-11-21T12:12:47;1.70;;;1.60;;
54177;SDS011;40085;53.004;6.770;2023-11-21T12:15:14;1.75;;;1.60;;
54177;SDS011;40085;53.004;6.770;2023-11-21T12:17:41;1.55;;;1.45;;
54177;SDS011;40085;53.004;6.770;2023-11-21T12:20:08;1.90;;;1.70;;
54177;SDS011;40085;53.004;6.770;2023-11-21T12:22:46;1.60;;;1.50;;
54177;SDS011;40085;53.004;6.770;2023-11-21T12:25:15;1.88;;;1.75;;
54177;SDS011;40085;53.004;6.770;2023-11-21T12:27:43;1.77;;;1.65;;
54177;SDS011;40085;53.004;6.770;2023-11-21T12:30:11;1.80;;;1.58;;
54177;SDS011;40085;53.004;6.770;2023-11-21T12:32:41;1.97;;;1.77;;
54177;SDS011;40085;53.004;6.770;2023-11-21T12:35:10;1.60;;;1.50;;
54177;SDS011;40085;53.004;6.770;2023-11-21T12:37:37;1.63;;;1.52;;
54177;SDS011;40085;53.004;6.770;2023-11-21T12:40:07;1.60;;;1.50;;
54177;SDS011;40085;53.004;6.770;2023-11-21T12:42:36;1.52;;;1.38;;
54177;SDS011;40085;53.004;6.770;2023-11-21T12:45:18;1.40;;;1.30;;
54177;SDS011;40085;53.004;6.770;2023-11-21T12:50:24;1.52;;;1.42;;
54177;SDS011;40085;53.004;6.770;2023-11-21T12:52:54;1.30;;;1.20;;
54177;SDS011;40085;53.004;6.770;2023-11-21T12:55:24;1.80;;;1.70;;
54177;SDS011;40085;53.004;6.770;2023-11-21T12:57:54;1.45;;;1.35;;
54177;SDS011;40085;53.004;6.770;2023-11-21T13:00:27;1.63;;;1.52;;
54177;SDS011;40085;53.004;6.770;2023-11-21T13:02:57;1.38;;;1.27;;
54177;SDS011;40085;53.004;6.770;2023-11-21T13:05:24;1.30;;;1.20;;
54177;SDS011;40085;53.004;6.770;2023-11-21T13:07:51;1.67;;;1.58;;
54177;SDS011;40085;53.004;6.770;2023-11-21T13:10:19;2.00;;;1.73;;
54177;SDS011;40085;53.004;6.770;2023-11-21T13:12:51;1.50;;;1.40;;
54177;SDS011;40085;53.004;6.770;2023-11-21T13:15:17;1.50;;;1.40;;
54177;SDS011;40085;53.004;6.770;2023-11-21T13:17:43;1.55;;;1.42;;
54177;SDS011;40085;53.004;6.770;2023-11-21T13:20:12;1.65;;;1.50;;
54177;SDS011;40085;53.004;6.770;2023-11-21T13:25:14;1.70;;;1.60;;
54177;SDS011;40085;53.004;6.770;2023-11-21T13:27:42;1.35;;;1.25;;
54177;SDS011;40085;53.004;6.770;2023-11-21T13:30:10;1.42;;;1.33;;
54177;SDS011;40085;53.004;6.770;2023-11-21T13:32:45;1.50;;;1.40;;
54177;SDS011;40085;53.004;6.770;2023-11-21T13:35:11;2.28;;;1.58;;
54177;SDS011;40085;53.004;6.770;2023-11-21T13:37:51;1.30;;;1.17;;
54177;SDS011;40085;53.004;6.770;2023-11-21T13:40:22;1.58;;;1.48;;
54177;SDS011;40085;53.004;6.770;2023-11-21T13:42:52;9.65;;;2.13;;
54177;SDS011;40085;53.004;6.770;2023-11-21T13:45:18;1.50;;;1.40;;
54177;SDS011;40085;53.004;6.770;2023-11-21T13:47:46;1.35;;;1.25;;
54177;SDS011;40085;53.004;6.770;2023-11-21T13:50:12;1.33;;;1.23;;
54177;SDS011;40085;53.004;6.770;2023-11-21T13:52:44;1.65;;;1.50;;
54177;SDS011;40085;53.004;6.770;2023-11-21T13:55:12;1.50;;;1.40;;
54177;SDS011;40085;53.004;6.770;2023-11-21T13:57:41;1.35;;;1.25;;
54177;SDS011;40085;53.004;6.770;2023-11-21T14:00:14;1.50;;;1.40;;
54177;SDS011;40085;53.004;6.770;2023-11-21T14:03:00;1.58;;;1.38;;
54177;SDS011;40085;53.004;6.770;2023-11-21T14:05:31;1.73;;;1.37;;
54177;SDS011;40085;53.004;6.770;2023-11-21T14:07:59;1.50;;;1.40;;
54177;SDS011;40085;53.004;6.770;2023-11-21T14:10:29;1.30;;;1.20;;
54177;SDS011;40085;53.004;6.770;2023-11-21T14:13:11;6.20;;;2.22;;
54177;SDS011;40085;53.004;6.770;2023-11-21T14:15:39;1.48;;;1.38;;
54177;SDS011;40085;53.004;6.770;2023-11-21T14:18:10;1.98;;;1.48;;
54177;SDS011;40085;53.004;6.770;2023-11-21T14:20:39;1.48;;;1.38;;
54177;SDS011;40085;53.004;6.770;2023-11-21T14:23:06;1.40;;;1.23;;
54177;SDS011;40085;53.004;6.770;2023-11-21T14:25:32;1.80;;;1.60;;
54177;SDS011;40085;53.004;6.770;2023-11-21T14:27:59;1.45;;;1.35;;
54177;SDS011;40085;53.004;6.770;2023-11-21T14:30:24;1.90;;;1.40;;
54177;SDS011;40085;53.004;6.770;2023-11-21T14:32:51;2.30;;;1.50;;
54177;SDS011;40085;53.004;6.770;2023-11-21T14:35:16;3.13;;;1.38;;
54177;SDS011;40085;53.004;6.770;2023-11-21T14:37:42;1.30;;;1.20;;
54177;SDS011;40085;53.004;6.770;2023-11-21T14:40:08;1.55;;;1.45;;
54177;SDS011;40085;53.004;6.770;2023-11-21T14:42:35;2.88;;;1.52;;
54177;SDS011;40085;53.004;6.770;2023-11-21T14:45:04;1.38;;;1.27;;
54177;SDS011;40085;53.004;6.770;2023-11-21T14:47:32;1.20;;;1.13;;
54177;SDS011;40085;53.004;6.770;2023-11-21T14:49:59;1.10;;;1.10;;
54177;SDS011;40085;53.004;6.770;2023-11-21T14:52:47;1.40;;;1.30;;
54177;SDS011;40085;53.004;6.770;2023-11-21T14:55:20;1.73;;;1.30;;
54177;SDS011;40085;53.004;6.770;2023-11-21T14:57:56;0.95;;;0.95;;
54177;SDS011;40085;53.004;6.770;2023-11-21T15:00:27;1.90;;;1.70;;
54177;SDS011;40085;53.004;6.770;2023-11-21T15:02:58;1.50;;;1.40;;
54177;SDS011;40085;53.004;6.770;2023-11-21T15:05:25;1.50;;;1.40;;
54177;SDS011;40085;53.004;6.770;2023-11-21T15:07:52;1.42;;;1.33;;
54177;SDS011;40085;53.004;6.770;2023-11-21T15:10:21;1.42;;;1.33;;
54177;SDS011;40085;53.004;6.770;2023-11-21T15:12:56;1.50;;;1.40;;